sensor_id;sensor_type;location;lat;lon;timestamp;pressure;altitude;pressure_sealevel;temperature;humidity
54248;BME280;40161;39.768;2.722;2022-12-18T00:01:16;101982.41;;;9.43;97.37
54248;BME280;40161;39.768;2.722;2022-12-18T00:03:42;101989.69;;;9.31;96.78
54248;BME280;40161;39.768;2.722;2022-12-18T00:06:08;101962.94;;;9.27;96.57
54248;BME280;40161;39.768;2.722;2022-12-18T00:08:34;101991.00;;;9.24;96.24
54248;BME280;40161;39.768;2.722;2022-12-18T00:11:04;102004.03;;;9.36;97.87
54248;BME280;40161;39.768;2.722;2022-12-18T00:13:30;101979.22;;;9.24;96.70
54248;BME280;40161;39.768;2.722;2022-12-18T00:16:04;101942.22;;;9.00;97.73
54248;BME280;40161;39.768;2.722;2022-12-18T00:18:31;102010.59;;;9.44;97.42
54248;BME280;40161;39.768;2.722;2022-12-18T00:21:01;102015.53;;;9.59;96.99
54248;BME280;40161;39.768;2.722;2022-12-18T00:23:27;101946.41;;;9.15;95.01
54248;BME280;40161;39.768;2.722;2022-12-18T00:25:53;101996.47;;;9.33;96.30
54248;BME280;40161;39.768;2.722;2022-12-18T00:28:18;102007.16;;;9.09;95.73
54248;BME280;40161;39.768;2.722;2022-12-18T00:30:44;101955.47;;;8.81;98.51
54248;BME280;40161;39.768;2.722;2022-12-18T00:33:10;102011.16;;;9.11;98.79
54248;BME280;40161;39.768;2.722;2022-12-18T00:35:35;102012.75;;;9.21;98.97
54248;BME280;40161;39.768;2.722;2022-12-18T00:38:01;101993.75;;;9.16;100.00
54248;BME280;40161;39.768;2.722;2022-12-18T00:40:26;101999.09;;;9.12;98.42
54248;BME280;40161;39.768;2.722;2022-12-18T00:42:52;101995.34;;;9.17;99.67
54248;BME280;40161;39.768;2.722;2022-12-18T00:45:21;102022.19;;;9.49;98.59
54248;BME280;40161;39.768;2.722;2022-12-18T00:47:46;102020.72;;;9.52;97.56
54248;BME280;40161;39.768;2.722;2022-12-18T00:50:12;102036.22;;;9.57;97.49
54248;BME280;40161;39.768;2.722;2022-12-18T00:52:37;102037.63;;;9.63;96.18
54248;BME280;40161;39.768;2.722;2022-12-18T00:55:03;102050.72;;;9.48;92.92
54248;BME280;40161;39.768;2.722;2022-12-18T00:57:29;102056.72;;;9.24;95.22
54248;BME280;40161;39.768;2.722;2022-12-18T00:59:54;102031.81;;;8.91;97.16
54248;BME280;40161;39.768;2.722;2022-12-18T01:02:20;102069.31;;;9.08;99.10
54248;BME280;40161;39.768;2.722;2022-12-18T01:04:45;102055.28;;;9.01;98.83
54248;BME280;40161;39.768;2.722;2022-12-18T01:07:11;102059.31;;;9.03;99.51
54248;BME280;40161;39.768;2.722;2022-12-18T01:09:36;102063.50;;;9.01;98.73
54248;BME280;40161;39.768;2.722;2022-12-18T01:12:02;102057.56;;;8.73;100.00
54248;BME280;40161;39.768;2.722;2022-12-18T01:14:28;102088.00;;;9.06;100.00
54248;BME280;40161;39.768;2.722;2022-12-18T01:16:53;102063.66;;;9.22;99.69
54248;BME280;40161;39.768;2.722;2022-12-18T01:19:19;102075.72;;;9.38;98.44
54248;BME280;40161;39.768;2.722;2022-12-18T01:21:44;102082.66;;;9.44;98.46
54248;BME280;40161;39.768;2.722;2022-12-18T01:24:11;102073.81;;;9.30;97.65
54248;BME280;40161;39.768;2.722;2022-12-18T01:26:37;102063.03;;;9.08;98.80
54248;BME280;40161;39.768;2.722;2022-12-18T01:29:02;102095.75;;;9.13;99.80
54248;BME280;40161;39.768;2.722;2022-12-18T01:31:31;102059.34;;;8.86;99.62
54248;BME280;40161;39.768;2.722;2022-12-18T01:33:57;102057.41;;;8.87;100.00
54248;BME280;40161;39.768;2.722;2022-12-18T01:36:28;102021.97;;;8.82;100.00
54248;BME280;40161;39.768;2.722;2022-12-18T01:38:55;102100.72;;;9.37;99.51
54248;BME280;40161;39.768;2.722;2022-12-18T01:41:26;102089.91;;;9.40;98.42
54248;BME280;40161;39.768;2.722;2022-12-18T01:49:52;102092.00;;;9.43;100.00
54248;BME280;40161;39.768;2.722;2022-12-18T01:52:19;102088.78;;;9.50;99.66
54248;BME280;40161;39.768;2.722;2022-12-18T01:54:46;102087.75;;;9.63;98.95
54248;BME280;40161;39.768;2.722;2022-12-18T01:57:13;102087.28;;;9.61;97.40
54248;BME280;40161;39.768;2.722;2022-12-18T01:59:39;102033.69;;;9.17;97.38
54248;BME280;40161;39.768;2.722;2022-12-18T02:02:08;102055.59;;;9.34;100.00
54248;BME280;40161;39.768;2.722;2022-12-18T02:04:33;102068.00;;;9.32;99.72
54248;BME280;40161;39.768;2.722;2022-12-18T02:10:06;102094.91;;;9.21;100.00
54248;BME280;40161;39.768;2.722;2022-12-18T02:12:56;102094.94;;;9.12;100.00
54248;BME280;40161;39.768;2.722;2022-12-18T02:15:55;102067.03;;;8.84;100.00
54248;BME280;40161;39.768;2.722;2022-12-18T02:18:33;102117.00;;;9.24;100.00
54248;BME280;40161;39.768;2.722;2022-12-18T02:28:56;102107.16;;;9.41;99.86
54248;BME280;40161;39.768;2.722;2022-12-18T02:31:28;102082.69;;;9.27;99.80
54248;BME280;40161;39.768;2.722;2022-12-18T02:33:58;102115.34;;;9.49;99.08
54248;BME280;40161;39.768;2.722;2022-12-18T02:36:27;102114.88;;;9.39;97.05
54248;BME280;40161;39.768;2.722;2022-12-18T02:38:54;102120.88;;;9.23;98.26
54248;BME280;40161;39.768;2.722;2022-12-18T02:41:22;102069.31;;;8.99;99.46
54248;BME280;40161;39.768;2.722;2022-12-18T02:43:55;102083.66;;;9.22;100.00
54248;BME280;40161;39.768;2.722;2022-12-18T02:46:32;102134.72;;;9.18;97.78
54248;BME280;40161;39.768;2.722;2022-12-18T02:49:30;102139.06;;;8.93;100.00
54248;BME280;40161;39.768;2.722;2022-12-18T02:54:55;102119.09;;;9.10;100.00
54248;BME280;40161;39.768;2.722;2022-12-18T03:02:43;102140.84;;;9.24;100.00
54248;BME280;40161;39.768;2.722;2022-12-18T03:05:18;102143.59;;;9.33;100.00
54248;BME280;40161;39.768;2.722;2022-12-18T03:07:51;102134.38;;;9.11;100.00
54248;BME280;40161;39.768;2.722;2022-12-18T03:10:25;102130.72;;;9.16;100.00
54248;BME280;40161;39.768;2.722;2022-12-18T03:12:56;102117.50;;;9.09;100.00
54248;BME280;40161;39.768;2.722;2022-12-18T03:15:35;102130.53;;;9.12;100.00
54248;BME280;40161;39.768;2.722;2022-12-18T03:18:15;102141.03;;;9.19;100.00
54248;BME280;40161;39.768;2.722;2022-12-18T03:20:44;102136.19;;;9.33;100.00
54248;BME280;40161;39.768;2.722;2022-12-18T03:23:15;102088.00;;;9.06;100.00
54248;BME280;40161;39.768;2.722;2022-12-18T03:25:44;102118.78;;;9.29;99.35
54248;BME280;40161;39.768;2.722;2022-12-18T03:28:14;102145.84;;;9.31;97.31
54248;BME280;40161;39.768;2.722;2022-12-18T03:30:41;102136.97;;;9.08;98.22
54248;BME280;40161;39.768;2.722;2022-12-18T03:33:18;102149.72;;;9.12;99.02
54248;BME280;40161;39.768;2.722;2022-12-18T03:35:45;102089.16;;;9.05;99.49
54248;BME280;40161;39.768;2.722;2022-12-18T03:38:11;102126.19;;;9.37;98.04
54248;BME280;40161;39.768;2.722;2022-12-18T03:43:15;102144.72;;;9.23;99.14
54248;BME280;40161;39.768;2.722;2022-12-18T03:46:00;102137.00;;;9.16;98.00
54248;BME280;40161;39.768;2.722;2022-12-18T03:48:40;102137.47;;;9.10;99.59
54248;BME280;40161;39.768;2.722;2022-12-18T03:51:12;102144.72;;;9.23;98.09
54248;BME280;40161;39.768;2.722;2022-12-18T03:56:13;102147.63;;;9.44;98.04
54248;BME280;40161;39.768;2.722;2022-12-18T03:58:42;102112.63;;;8.97;96.75
54248;BME280;40161;39.768;2.722;2022-12-18T04:01:11;102136.81;;;8.95;98.51
54248;BME280;40161;39.768;2.722;2022-12-18T04:03:39;102153.38;;;8.82;100.00
54248;BME280;40161;39.768;2.722;2022-12-18T04:06:06;102079.69;;;8.37;100.00
54248;BME280;40161;39.768;2.722;2022-12-18T04:08:33;102155.91;;;8.61;100.00
54248;BME280;40161;39.768;2.722;2022-12-18T04:11:01;102143.19;;;8.65;100.00
54248;BME280;40161;39.768;2.722;2022-12-18T04:13:34;102139.75;;;8.42;100.00
54248;BME280;40161;39.768;2.722;2022-12-18T04:16:00;102134.44;;;8.45;100.00
54248;BME280;40161;39.768;2.722;2022-12-18T04:18:26;102190.53;;;8.74;100.00
54248;BME280;40161;39.768;2.722;2022-12-18T04:20:52;102154.94;;;8.65;100.00
54248;BME280;40161;39.768;2.722;2022-12-18T04:23:18;102166.09;;;8.77;100.00
54248;BME280;40161;39.768;2.722;2022-12-18T04:25:43;102176.22;;;8.77;100.00
54248;BME280;40161;39.768;2.722;2022-12-18T04:28:09;102171.53;;;8.69;100.00
54248;BME280;40161;39.768;2.722;2022-12-18T04:30:34;102135.41;;;8.49;100.00
54248;BME280;40161;39.768;2.722;2022-12-18T04:33:00;102142.34;;;8.55;100.00
54248;BME280;40161;39.768;2.722;2022-12-18T04:35:26;102098.66;;;8.33;100.00
54248;BME280;40161;39.768;2.722;2022-12-18T04:37:51;102183.81;;;8.97;100.00
54248;BME280;40161;39.768;2.722;2022-12-18T04:40:17;102179.81;;;9.03;100.00
54248;BME280;40161;39.768;2.722;2022-12-18T04:42:42;102150.78;;;8.76;98.85
54248;BME280;40161;39.768;2.722;2022-12-18T04:45:08;102124.00;;;8.56;98.58
54248;BME280;40161;39.768;2.722;2022-12-18T04:47:34;102175.59;;;8.80;99.31
54248;BME280;40161;39.768;2.722;2022-12-18T04:49:59;102159.75;;;8.60;98.97
54248;BME280;40161;39.768;2.722;2022-12-18T04:52:25;102187.50;;;8.84;99.73
54248;BME280;40161;39.768;2.722;2022-12-18T04:54:50;102196.88;;;9.00;99.60
54248;BME280;40161;39.768;2.722;2022-12-18T04:57:16;102191.81;;;8.68;96.91
54248;BME280;40161;39.768;2.722;2022-12-18T04:59:43;102203.41;;;8.65;99.19
54248;BME280;40161;39.768;2.722;2022-12-18T05:02:09;102172.50;;;8.64;100.00
54248;BME280;40161;39.768;2.722;2022-12-18T05:04:34;102197.69;;;9.01;99.14
54248;BME280;40161;39.768;2.722;2022-12-18T05:07:00;102187.19;;;8.94;98.37
54248;BME280;40161;39.768;2.722;2022-12-18T05:09:25;102153.41;;;8.99;97.38
54248;BME280;40161;39.768;2.722;2022-12-18T05:11:51;102182.03;;;8.75;95.06
54248;BME280;40161;39.768;2.722;2022-12-18T05:14:16;102164.53;;;8.45;97.14
54248;BME280;40161;39.768;2.722;2022-12-18T05:16:42;102210.47;;;8.57;99.92
54248;BME280;40161;39.768;2.722;2022-12-18T05:19:08;102210.25;;;8.45;100.00
54248;BME280;40161;39.768;2.722;2022-12-18T05:21:33;102205.34;;;8.64;100.00
54248;BME280;40161;39.768;2.722;2022-12-18T05:23:59;102191.03;;;8.67;100.00
54248;BME280;40161;39.768;2.722;2022-12-18T05:26:25;102176.53;;;8.36;98.93
54248;BME280;40161;39.768;2.722;2022-12-18T05:28:50;102201.69;;;8.46;100.00
54248;BME280;40161;39.768;2.722;2022-12-18T05:31:16;102193.72;;;8.27;99.98
54248;BME280;40161;39.768;2.722;2022-12-18T05:33:41;102206.16;;;8.33;100.00
54248;BME280;40161;39.768;2.722;2022-12-18T05:36:09;102188.81;;;8.38;100.00
54248;BME280;40161;39.768;2.722;2022-12-18T05:38:36;102179.09;;;8.32;100.00
54248;BME280;40161;39.768;2.722;2022-12-18T05:41:02;102225.56;;;8.54;100.00
54248;BME280;40161;39.768;2.722;2022-12-18T05:43:28;102217.66;;;8.53;100.00
54248;BME280;40161;39.768;2.722;2022-12-18T05:45:54;102214.75;;;8.49;100.00
54248;BME280;40161;39.768;2.722;2022-12-18T05:48:21;102179.72;;;8.29;100.00
54248;BME280;40161;39.768;2.722;2022-12-18T05:50:48;102224.31;;;8.61;100.00
54248;BME280;40161;39.768;2.722;2022-12-18T05:53:17;102196.88;;;8.43;100.00
54248;BME280;40161;39.768;2.722;2022-12-18T05:55:43;102232.72;;;8.64;99.89
54248;BME280;40161;39.768;2.722;2022-12-18T05:58:10;102230.44;;;8.58;99.78
54248;BME280;40161;39.768;2.722;2022-12-18T06:00:38;102226.84;;;8.48;99.03
54248;BME280;40161;39.768;2.722;2022-12-18T06:03:10;102241.50;;;8.52;99.46
54248;BME280;40161;39.768;2.722;2022-12-18T06:05:37;102241.25;;;8.71;100.00
54248;BME280;40161;39.768;2.722;2022-12-18T06:08:03;102194.53;;;8.59;99.09
54248;BME280;40161;39.768;2.722;2022-12-18T06:10:29;102208.88;;;8.73;97.62
54248;BME280;40161;39.768;2.722;2022-12-18T06:12:55;102229.69;;;8.74;95.64
54248;BME280;40161;39.768;2.722;2022-12-18T06:15:20;102255.63;;;8.46;95.93
54248;BME280;40161;39.768;2.722;2022-12-18T06:17:46;102249.44;;;8.09;99.41
54248;BME280;40161;39.768;2.722;2022-12-18T06:20:11;102218.25;;;7.88;100.00
54248;BME280;40161;39.768;2.722;2022-12-18T06:22:37;102255.56;;;8.15;100.00
54248;BME280;40161;39.768;2.722;2022-12-18T06:25:03;102255.16;;;7.76;100.00
54248;BME280;40161;39.768;2.722;2022-12-18T06:27:29;102243.28;;;7.81;100.00
54248;BME280;40161;39.768;2.722;2022-12-18T06:29:54;102259.63;;;7.95;100.00
54248;BME280;40161;39.768;2.722;2022-12-18T06:32:20;102279.53;;;8.09;100.00
54248;BME280;40161;39.768;2.722;2022-12-18T06:34:45;102263.97;;;8.18;100.00
54248;BME280;40161;39.768;2.722;2022-12-18T06:37:11;102283.22;;;8.36;100.00
54248;BME280;40161;39.768;2.722;2022-12-18T06:39:36;102286.16;;;8.39;100.00
54248;BME280;40161;39.768;2.722;2022-12-18T06:42:03;102238.88;;;7.94;100.00
54248;BME280;40161;39.768;2.722;2022-12-18T06:44:28;102290.22;;;8.19;100.00
54248;BME280;40161;39.768;2.722;2022-12-18T06:46:54;102302.94;;;8.24;99.94
54248;BME280;40161;39.768;2.722;2022-12-18T06:49:20;102306.16;;;8.40;100.00
54248;BME280;40161;39.768;2.722;2022-12-18T06:51:45;102294.25;;;8.44;99.23
54248;BME280;40161;39.768;2.722;2022-12-18T06:54:11;102298.16;;;8.52;100.00
54248;BME280;40161;39.768;2.722;2022-12-18T06:56:36;102304.16;;;8.63;99.02
54248;BME280;40161;39.768;2.722;2022-12-18T06:59:02;102322.00;;;8.60;97.45
54248;BME280;40161;39.768;2.722;2022-12-18T07:01:27;102322.22;;;8.41;95.75
54248;BME280;40161;39.768;2.722;2022-12-18T07:03:54;102322.00;;;8.15;98.32
54248;BME280;40161;39.768;2.722;2022-12-18T07:06:22;102276.44;;;7.66;100.00
54248;BME280;40161;39.768;2.722;2022-12-18T07:08:48;102275.59;;;7.79;100.00
54248;BME280;40161;39.768;2.722;2022-12-18T07:11:15;102329.84;;;8.08;100.00
54248;BME280;40161;39.768;2.722;2022-12-18T07:13:41;102335.59;;;8.20;100.00
54248;BME280;40161;39.768;2.722;2022-12-18T07:16:11;102338.25;;;8.34;100.00
54248;BME280;40161;39.768;2.722;2022-12-18T07:18:37;102343.97;;;8.46;100.00
54248;BME280;40161;39.768;2.722;2022-12-18T07:21:07;102335.19;;;8.36;100.00
54248;BME280;40161;39.768;2.722;2022-12-18T07:23:33;102342.38;;;8.23;96.68
54248;BME280;40161;39.768;2.722;2022-12-18T07:26:08;102352.56;;;8.31;99.22
54248;BME280;40161;39.768;2.722;2022-12-18T07:28:34;102291.88;;;8.06;99.17
54248;BME280;40161;39.768;2.722;2022-12-18T07:31:04;102378.56;;;8.65;98.36
54248;BME280;40161;39.768;2.722;2022-12-18T07:33:32;102357.66;;;8.69;98.07
54248;BME280;40161;39.768;2.722;2022-12-18T07:36:05;102363.50;;;8.76;97.19
54248;BME280;40161;39.768;2.722;2022-12-18T07:38:32;102330.91;;;8.21;95.14
54248;BME280;40161;39.768;2.722;2022-12-18T07:41:05;102351.81;;;8.39;98.79
54248;BME280;40161;39.768;2.722;2022-12-18T07:43:31;102373.19;;;8.37;98.49
54248;BME280;40161;39.768;2.722;2022-12-18T07:45:57;102361.34;;;8.42;99.40
54248;BME280;40161;39.768;2.722;2022-12-18T07:48:23;102374.34;;;8.59;99.36
54248;BME280;40161;39.768;2.722;2022-12-18T07:50:49;102359.03;;;8.58;97.17
54248;BME280;40161;39.768;2.722;2022-12-18T07:53:14;102366.91;;;8.37;98.48
54248;BME280;40161;39.768;2.722;2022-12-18T07:55:41;102360.94;;;8.35;99.76
54248;BME280;40161;39.768;2.722;2022-12-18T07:58:07;102369.94;;;8.35;100.00
54248;BME280;40161;39.768;2.722;2022-12-18T08:00:33;102315.41;;;7.94;100.00
54248;BME280;40161;39.768;2.722;2022-12-18T08:02:59;102371.56;;;8.14;100.00
54248;BME280;40161;39.768;2.722;2022-12-18T08:05:25;102290.66;;;7.54;100.00
54248;BME280;40161;39.768;2.722;2022-12-18T08:07:50;102320.13;;;7.79;100.00
54248;BME280;40161;39.768;2.722;2022-12-18T08:10:16;102385.25;;;8.36;100.00
54248;BME280;40161;39.768;2.722;2022-12-18T08:12:42;102360.28;;;8.15;100.00
54248;BME280;40161;39.768;2.722;2022-12-18T08:15:08;102377.47;;;8.43;100.00
54248;BME280;40161;39.768;2.722;2022-12-18T08:17:33;102393.75;;;8.71;100.00
54248;BME280;40161;39.768;2.722;2022-12-18T08:19:59;102399.41;;;8.74;100.00
54248;BME280;40161;39.768;2.722;2022-12-18T08:22:24;102391.03;;;8.79;98.24
54248;BME280;40161;39.768;2.722;2022-12-18T08:24:50;102390.63;;;8.64;97.02
54248;BME280;40161;39.768;2.722;2022-12-18T08:27:16;102367.44;;;8.61;99.58
54248;BME280;40161;39.768;2.722;2022-12-18T08:29:41;102401.03;;;8.84;99.01
54248;BME280;40161;39.768;2.722;2022-12-18T08:32:07;102412.94;;;8.79;97.53
54248;BME280;40161;39.768;2.722;2022-12-18T08:34:33;102408.72;;;8.51;98.73
54248;BME280;40161;39.768;2.722;2022-12-18T08:36:58;102400.78;;;8.41;100.00
54248;BME280;40161;39.768;2.722;2022-12-18T08:39:24;102401.66;;;8.50;100.00
54248;BME280;40161;39.768;2.722;2022-12-18T08:41:49;102411.16;;;8.75;100.00
54248;BME280;40161;39.768;2.722;2022-12-18T08:44:33;102432.19;;;8.88;100.00
54248;BME280;40161;39.768;2.722;2022-12-18T08:47:08;102402.13;;;8.52;99.98
54248;BME280;40161;39.768;2.722;2022-12-18T08:49:34;102410.72;;;8.59;100.00
54248;BME280;40161;39.768;2.722;2022-12-18T08:52:00;102412.22;;;8.65;100.00
54248;BME280;40161;39.768;2.722;2022-12-18T08:54:26;102397.72;;;8.65;100.00
54248;BME280;40161;39.768;2.722;2022-12-18T08:56:52;102425.59;;;8.98;100.00
54248;BME280;40161;39.768;2.722;2022-12-18T08:59:18;102396.34;;;8.76;100.00
54248;BME280;40161;39.768;2.722;2022-12-18T09:01:44;102427.63;;;8.84;100.00
54248;BME280;40161;39.768;2.722;2022-12-18T09:04:10;102443.50;;;8.95;100.00
54248;BME280;40161;39.768;2.722;2022-12-18T09:06:36;102439.13;;;8.94;100.00
54248;BME280;40161;39.768;2.722;2022-12-18T09:09:03;102440.31;;;9.02;100.00
54248;BME280;40161;39.768;2.722;2022-12-18T09:11:29;102450.66;;;9.14;100.00
54248;BME280;40161;39.768;2.722;2022-12-18T09:13:56;102411.72;;;8.94;100.00
54248;BME280;40161;39.768;2.722;2022-12-18T09:16:22;102456.50;;;9.21;100.00
54248;BME280;40161;39.768;2.722;2022-12-18T09:18:48;102459.78;;;9.32;100.00
54248;BME280;40161;39.768;2.722;2022-12-18T09:21:17;102448.97;;;9.26;100.00
54248;BME280;40161;39.768;2.722;2022-12-18T09:23:44;102421.84;;;9.16;99.46
54248;BME280;40161;39.768;2.722;2022-12-18T09:26:14;102471.16;;;9.47;98.77
54248;BME280;40161;39.768;2.722;2022-12-18T09:28:39;102459.25;;;9.21;97.66
54248;BME280;40161;39.768;2.722;2022-12-18T09:31:07;102476.72;;;9.34;99.09
54248;BME280;40161;39.768;2.722;2022-12-18T09:33:35;102428.41;;;8.84;100.00
54248;BME280;40161;39.768;2.722;2022-12-18T09:36:05;102455.16;;;9.10;100.00
54248;BME280;40161;39.768;2.722;2022-12-18T09:38:32;102437.97;;;9.18;100.00
54248;BME280;40161;39.768;2.722;2022-12-18T09:41:15;102424.94;;;9.23;100.00
54248;BME280;40161;39.768;2.722;2022-12-18T09:43:47;102433.34;;;9.36;100.00
54248;BME280;40161;39.768;2.722;2022-12-18T09:46:23;102469.44;;;9.69;100.00
54248;BME280;40161;39.768;2.722;2022-12-18T09:48:52;102477.25;;;9.93;100.00
54248;BME280;40161;39.768;2.722;2022-12-18T09:51:23;102438.50;;;9.77;100.00
54248;BME280;40161;39.768;2.722;2022-12-18T09:53:58;102426.09;;;9.80;100.00
54248;BME280;40161;39.768;2.722;2022-12-18T09:56:28;102480.22;;;10.22;100.00
54248;BME280;40161;39.768;2.722;2022-12-18T09:59:04;102489.31;;;10.40;100.00
54248;BME280;40161;39.768;2.722;2022-12-18T10:01:31;102494.50;;;10.51;100.00
54248;BME280;40161;39.768;2.722;2022-12-18T10:03:57;102497.22;;;10.59;100.00
54248;BME280;40161;39.768;2.722;2022-12-18T10:06:48;102474.31;;;10.64;100.00
54248;BME280;40161;39.768;2.722;2022-12-18T10:09:30;102450.88;;;10.58;100.00
54248;BME280;40161;39.768;2.722;2022-12-18T10:15:13;102485.56;;;11.06;100.00
54248;BME280;40161;39.768;2.722;2022-12-18T10:20:31;102443.84;;;11.12;100.00
54248;BME280;40161;39.768;2.722;2022-12-18T10:28:09;102468.38;;;11.64;100.00
54248;BME280;40161;39.768;2.722;2022-12-18T10:30:35;102446.88;;;11.58;100.00
54248;BME280;40161;39.768;2.722;2022-12-18T10:33:04;102433.44;;;11.65;100.00
54248;BME280;40161;39.768;2.722;2022-12-18T10:35:31;102449.38;;;11.80;100.00
54248;BME280;40161;39.768;2.722;2022-12-18T10:48:27;102465.56;;;12.32;97.56
54248;BME280;40161;39.768;2.722;2022-12-18T10:50:54;102390.16;;;12.04;97.20
54248;BME280;40161;39.768;2.722;2022-12-18T10:53:28;102461.78;;;12.58;96.15
54248;BME280;40161;39.768;2.722;2022-12-18T10:55:56;102466.88;;;12.68;96.09
54248;BME280;40161;39.768;2.722;2022-12-18T11:01:16;102441.41;;;12.71;95.20
54248;BME280;40161;39.768;2.722;2022-12-18T11:04:08;102445.22;;;12.79;95.13
54248;BME280;40161;39.768;2.722;2022-12-18T11:06:32;102432.38;;;12.83;93.88
54248;BME280;40161;39.768;2.722;2022-12-18T11:09:00;102430.22;;;12.89;94.38
54248;BME280;40161;39.768;2.722;2022-12-18T11:11:27;102460.81;;;13.20;93.48
54248;BME280;40161;39.768;2.722;2022-12-18T11:14:01;102434.63;;;13.14;93.19
54248;BME280;40161;39.768;2.722;2022-12-18T11:16:28;102413.16;;;13.07;91.86
54248;BME280;40161;39.768;2.722;2022-12-18T11:19:28;102443.19;;;13.34;91.79
54248;BME280;40161;39.768;2.722;2022-12-18T11:21:55;102415.38;;;13.26;92.13
54248;BME280;40161;39.768;2.722;2022-12-18T11:24:31;102459.06;;;13.61;92.62
54248;BME280;40161;39.768;2.722;2022-12-18T11:27:02;102418.28;;;13.42;91.72
54248;BME280;40161;39.768;2.722;2022-12-18T11:29:33;102431.34;;;13.58;91.90
54248;BME280;40161;39.768;2.722;2022-12-18T11:34:43;102408.25;;;13.62;90.38
54248;BME280;40161;39.768;2.722;2022-12-18T11:37:11;102456.19;;;13.94;88.99
54248;BME280;40161;39.768;2.722;2022-12-18T11:39:44;102411.38;;;13.73;87.98
54248;BME280;40161;39.768;2.722;2022-12-18T11:44:52;102393.44;;;13.67;87.26
54248;BME280;40161;39.768;2.722;2022-12-18T11:47:23;102462.94;;;14.09;86.80
54248;BME280;40161;39.768;2.722;2022-12-18T11:49:51;102403.53;;;13.87;85.99
54248;BME280;40161;39.768;2.722;2022-12-18T11:52:19;102455.31;;;14.18;85.75
54248;BME280;40161;39.768;2.722;2022-12-18T11:54:51;102446.78;;;14.23;86.66
54248;BME280;40161;39.768;2.722;2022-12-18T11:57:35;102439.56;;;14.19;87.20
54248;BME280;40161;39.768;2.722;2022-12-18T12:00:12;102445.97;;;14.23;87.58
54248;BME280;40161;39.768;2.722;2022-12-18T12:26:53;102439.56;;;14.07;88.06
54248;BME280;40161;39.768;2.722;2022-12-18T12:34:49;102391.53;;;13.95;88.23
54248;BME280;40161;39.768;2.722;2022-12-18T12:37:47;102432.19;;;14.23;88.26
54248;BME280;40161;39.768;2.722;2022-12-18T12:40:18;102424.38;;;14.25;88.66
54248;BME280;40161;39.768;2.722;2022-12-18T12:42:48;102426.06;;;14.30;88.19
54248;BME280;40161;39.768;2.722;2022-12-18T12:45:40;102415.81;;;14.30;88.03
54248;BME280;40161;39.768;2.722;2022-12-18T12:48:37;102393.41;;;14.19;88.31
54248;BME280;40161;39.768;2.722;2022-12-18T12:51:04;102417.75;;;14.42;88.08
54248;BME280;40161;39.768;2.722;2022-12-18T12:53:36;102420.25;;;14.47;87.86
54248;BME280;40161;39.768;2.722;2022-12-18T12:56:04;102388.19;;;14.30;87.48
54248;BME280;40161;39.768;2.722;2022-12-18T13:01:59;102395.97;;;14.53;86.90
54248;BME280;40161;39.768;2.722;2022-12-18T13:04:42;102410.88;;;14.64;85.83
54248;BME280;40161;39.768;2.722;2022-12-18T13:07:27;102409.28;;;14.63;86.10
54248;BME280;40161;39.768;2.722;2022-12-18T13:10:22;102414.38;;;14.77;85.92
54248;BME280;40161;39.768;2.722;2022-12-18T13:12:52;102378.78;;;14.59;85.94
54248;BME280;40161;39.768;2.722;2022-12-18T13:18:22;102409.25;;;14.91;86.44
54248;BME280;40161;39.768;2.722;2022-12-18T13:28:22;102361.50;;;14.78;86.43
54248;BME280;40161;39.768;2.722;2022-12-18T13:30:57;102394.81;;;14.98;86.31
54248;BME280;40161;39.768;2.722;2022-12-18T13:38:32;102363.03;;;14.91;86.80
54248;BME280;40161;39.768;2.722;2022-12-18T13:41:00;102391.50;;;15.08;86.49
54248;BME280;40161;39.768;2.722;2022-12-18T13:43:29;102386.78;;;15.08;86.77
54248;BME280;40161;39.768;2.722;2022-12-18T13:46:05;102367.25;;;15.01;87.85
54248;BME280;40161;39.768;2.722;2022-12-18T13:48:35;102375.00;;;15.11;87.21
54248;BME280;40161;39.768;2.722;2022-12-18T13:51:07;102371.06;;;15.12;86.86
54248;BME280;40161;39.768;2.722;2022-12-18T13:53:42;102368.38;;;15.16;86.78
54248;BME280;40161;39.768;2.722;2022-12-18T13:56:08;102357.88;;;15.06;87.06
54248;BME280;40161;39.768;2.722;2022-12-18T13:58:34;102339.41;;;14.94;86.40
54248;BME280;40161;39.768;2.722;2022-12-18T14:00:59;102396.75;;;15.29;86.57
54248;BME280;40161;39.768;2.722;2022-12-18T14:03:28;102312.47;;;14.75;86.18
54248;BME280;40161;39.768;2.722;2022-12-18T14:06:04;102398.00;;;15.31;86.35
54248;BME280;40161;39.768;2.722;2022-12-18T14:08:39;102376.69;;;15.16;86.75
54248;BME280;40161;39.768;2.722;2022-12-18T14:11:06;102397.38;;;15.22;86.44
54248;BME280;40161;39.768;2.722;2022-12-18T14:13:37;102355.31;;;14.97;86.60
54248;BME280;40161;39.768;2.722;2022-12-18T14:16:06;102380.72;;;15.18;86.81
54248;BME280;40161;39.768;2.722;2022-12-18T14:18:45;102365.81;;;15.07;87.06
54248;BME280;40161;39.768;2.722;2022-12-18T14:21:29;102399.88;;;15.27;87.17
54248;BME280;40161;39.768;2.722;2022-12-18T14:24:15;102405.16;;;15.32;86.92
54248;BME280;40161;39.768;2.722;2022-12-18T14:26:41;102410.59;;;15.29;86.74
54248;BME280;40161;39.768;2.722;2022-12-18T14:29:27;102417.38;;;15.31;87.20
54248;BME280;40161;39.768;2.722;2022-12-18T14:32:13;102410.84;;;15.24;87.69
54248;BME280;40161;39.768;2.722;2022-12-18T14:34:48;102356.97;;;14.86;88.57
54248;BME280;40161;39.768;2.722;2022-12-18T14:37:17;102385.34;;;14.99;89.02
54248;BME280;40161;39.768;2.722;2022-12-18T14:42:21;102440.75;;;15.18;89.82
54248;BME280;40161;39.768;2.722;2022-12-18T14:44:47;102392.47;;;14.84;90.05
54248;BME280;40161;39.768;2.722;2022-12-18T14:47:16;102451.25;;;15.12;90.96
54248;BME280;40161;39.768;2.722;2022-12-18T14:49:43;102448.50;;;15.12;90.99
54248;BME280;40161;39.768;2.722;2022-12-18T14:52:24;102411.09;;;14.87;91.32
54248;BME280;40161;39.768;2.722;2022-12-18T14:54:52;102412.63;;;14.84;91.60